sensor_id;sensor_type;location;lat;lon;timestamp;P1;durP1;ratioP1;P2;durP2;ratioP2
78141;SDS011;67393;52.620;13.482;2024-03-06T00:00:03;26.20;;;12.68;;
78141;SDS011;67393;52.620;13.482;2024-03-06T00:02:29;29.65;;;13.18;;
78141;SDS011;67393;52.620;13.482;2024-03-06T00:04:56;29.92;;;14.57;;
78141;SDS011;67393;52.620;13.482;2024-03-06T00:07:22;28.73;;;15.10;;
78141;SDS011;67393;52.620;13.482;2024-03-06T00:09:48;26.10;;;13.25;;
78141;SDS011;67393;52.620;13.482;2024-03-06T00:12:14;23.40;;;12.60;;
78141;SDS011;67393;52.620;13.482;2024-03-06T00:14:41;26.95;;;12.70;;
78141;SDS011;67393;52.620;13.482;2024-03-06T00:17:07;25.77;;;13.45;;
78141;SDS011;67393;52.620;13.482;2024-03-06T00:19:34;25.52;;;13.07;;
78141;SDS011;67393;52.620;13.482;2024-03-06T00:22:00;23.85;;;12.75;;
78141;SDS011;67393;52.620;13.482;2024-03-06T00:24:26;31.33;;;13.85;;
78141;SDS011;67393;52.620;13.482;2024-03-06T00:26:53;28.65;;;12.80;;
78141;SDS011;67393;52.620;13.482;2024-03-06T00:29:19;26.08;;;12.55;;
78141;SDS011;67393;52.620;13.482;2024-03-06T00:31:45;24.65;;;13.23;;
78141;SDS011;67393;52.620;13.482;2024-03-06T00:34:12;31.02;;;13.30;;
78141;SDS011;67393;52.620;13.482;2024-03-06T00:36:45;26.23;;;12.07;;
78141;SDS011;67393;52.620;13.482;2024-03-06T00:39:11;26.67;;;12.55;;
78141;SDS011;67393;52.620;13.482;2024-03-06T00:41:38;25.10;;;12.30;;
78141;SDS011;67393;52.620;13.482;2024-03-06T00:44:04;26.88;;;13.27;;
78141;SDS011;67393;52.620;13.482;2024-03-06T00:46:31;30.60;;;14.90;;
78141;SDS011;67393;52.620;13.482;2024-03-06T00:48:57;26.58;;;13.68;;
78141;SDS011;67393;52.620;13.482;2024-03-06T00:51:23;25.52;;;13.35;;
78141;SDS011;67393;52.620;13.482;2024-03-06T00:54:06;26.77;;;12.88;;
78141;SDS011;67393;52.620;13.482;2024-03-06T00:56:33;27.48;;;12.88;;
78141;SDS011;67393;52.620;13.482;2024-03-06T00:59:02;24.92;;;12.30;;
78141;SDS011;67393;52.620;13.482;2024-03-06T01:01:29;23.90;;;11.35;;
78141;SDS011;67393;52.620;13.482;2024-03-06T01:03:55;26.35;;;12.90;;
78141;SDS011;67393;52.620;13.482;2024-03-06T01:06:22;28.27;;;13.60;;
78141;SDS011;67393;52.620;13.482;2024-03-06T01:08:48;23.52;;;11.65;;
78141;SDS011;67393;52.620;13.482;2024-03-06T01:11:14;26.05;;;12.82;;
78141;SDS011;67393;52.620;13.482;2024-03-06T01:13:40;24.65;;;12.50;;
78141;SDS011;67393;52.620;13.482;2024-03-06T01:16:07;24.30;;;12.32;;
78141;SDS011;67393;52.620;13.482;2024-03-06T01:18:33;27.77;;;13.02;;
78141;SDS011;67393;52.620;13.482;2024-03-06T01:20:59;29.13;;;13.63;;
78141;SDS011;67393;52.620;13.482;2024-03-06T01:23:25;29.77;;;11.95;;
78141;SDS011;67393;52.620;13.482;2024-03-06T01:25:52;24.52;;;11.70;;
78141;SDS011;67393;52.620;13.482;2024-03-06T01:28:18;30.05;;;12.27;;
78141;SDS011;67393;52.620;13.482;2024-03-06T01:30:44;25.67;;;11.82;;
78141;SDS011;67393;52.620;13.482;2024-03-06T01:33:10;30.73;;;12.57;;
78141;SDS011;67393;52.620;13.482;2024-03-06T01:35:37;25.05;;;11.75;;
78141;SDS011;67393;52.620;13.482;2024-03-06T01:38:03;24.38;;;12.05;;
78141;SDS011;67393;52.620;13.482;2024-03-06T01:40:30;29.70;;;12.27;;
78141;SDS011;67393;52.620;13.482;2024-03-06T01:42:57;25.27;;;12.30;;
78141;SDS011;67393;52.620;13.482;2024-03-06T01:45:23;25.58;;;12.07;;
78141;SDS011;67393;52.620;13.482;2024-03-06T01:47:49;27.08;;;12.68;;
78141;SDS011;67393;52.620;13.482;2024-03-06T01:50:15;27.60;;;12.38;;
78141;SDS011;67393;52.620;13.482;2024-03-06T01:52:42;28.63;;;13.75;;
78141;SDS011;67393;52.620;13.482;2024-03-06T01:55:09;29.73;;;13.57;;
78141;SDS011;67393;52.620;13.482;2024-03-06T01:57:36;23.60;;;12.23;;
78141;SDS011;67393;52.620;13.482;2024-03-06T02:00:04;24.95;;;11.65;;
78141;SDS011;67393;52.620;13.482;2024-03-06T02:02:31;23.73;;;11.63;;
78141;SDS011;67393;52.620;13.482;2024-03-06T02:04:57;25.92;;;11.93;;
78141;SDS011;67393;52.620;13.482;2024-03-06T02:07:24;25.55;;;12.18;;
78141;SDS011;67393;52.620;13.482;2024-03-06T02:09:50;28.92;;;12.15;;
78141;SDS011;67393;52.620;13.482;2024-03-06T02:12:16;26.38;;;12.43;;
78141;SDS011;67393;52.620;13.482;2024-03-06T02:14:43;26.95;;;12.18;;
78141;SDS011;67393;52.620;13.482;2024-03-06T02:17:09;28.30;;;12.88;;
78141;SDS011;67393;52.620;13.482;2024-03-06T02:19:39;26.77;;;12.30;;
78141;SDS011;67393;52.620;13.482;2024-03-06T02:22:06;29.75;;;12.65;;
78141;SDS011;67393;52.620;13.482;2024-03-06T02:24:33;25.10;;;12.63;;
78141;SDS011;67393;52.620;13.482;2024-03-06T02:26:59;28.85;;;13.15;;
78141;SDS011;67393;52.620;13.482;2024-03-06T02:29:26;27.25;;;12.82;;
78141;SDS011;67393;52.620;13.482;2024-03-06T02:31:52;29.13;;;13.98;;
78141;SDS011;67393;52.620;13.482;2024-03-06T02:34:18;22.83;;;11.23;;
78141;SDS011;67393;52.620;13.482;2024-03-06T02:36:44;26.08;;;12.60;;
78141;SDS011;67393;52.620;13.482;2024-03-06T02:39:11;24.33;;;11.82;;
78141;SDS011;67393;52.620;13.482;2024-03-06T02:41:37;28.77;;;12.20;;
78141;SDS011;67393;52.620;13.482;2024-03-06T02:44:03;30.58;;;12.52;;
78141;SDS011;67393;52.620;13.482;2024-03-06T02:46:30;26.40;;;13.05;;
78141;SDS011;67393;52.620;13.482;2024-03-06T02:48:56;31.98;;;13.55;;
78141;SDS011;67393;52.620;13.482;2024-03-06T02:51:22;24.13;;;11.45;;
78141;SDS011;67393;52.620;13.482;2024-03-06T02:53:49;28.25;;;13.23;;
78141;SDS011;67393;52.620;13.482;2024-03-06T02:56:15;29.17;;;12.60;;
78141;SDS011;67393;52.620;13.482;2024-03-06T02:58:42;29.88;;;12.07;;
78141;SDS011;67393;52.620;13.482;2024-03-06T03:01:08;29.50;;;13.40;;
78141;SDS011;67393;52.620;13.482;2024-03-06T03:03:34;30.35;;;14.10;;
78141;SDS011;67393;52.620;13.482;2024-03-06T03:06:00;26.17;;;12.07;;
78141;SDS011;67393;52.620;13.482;2024-03-06T03:08:27;23.92;;;12.23;;
78141;SDS011;67393;52.620;13.482;2024-03-06T03:10:53;30.35;;;13.68;;
78141;SDS011;67393;52.620;13.482;2024-03-06T03:13:19;27.48;;;13.15;;
78141;SDS011;67393;52.620;13.482;2024-03-06T03:15:46;26.92;;;12.35;;
78141;SDS011;67393;52.620;13.482;2024-03-06T03:18:12;27.08;;;12.20;;
78141;SDS011;67393;52.620;13.482;2024-03-06T03:20:38;26.52;;;13.02;;
78141;SDS011;67393;52.620;13.482;2024-03-06T03:23:04;26.33;;;12.25;;
78141;SDS011;67393;52.620;13.482;2024-03-06T03:25:31;24.50;;;11.18;;
78141;SDS011;67393;52.620;13.482;2024-03-06T03:27:57;33.15;;;13.48;;
78141;SDS011;67393;52.620;13.482;2024-03-06T03:30:23;26.05;;;12.48;;
78141;SDS011;67393;52.620;13.482;2024-03-06T03:32:49;31.58;;;14.15;;
78141;SDS011;67393;52.620;13.482;2024-03-06T03:35:16;24.60;;;11.07;;
78141;SDS011;67393;52.620;13.482;2024-03-06T03:37:42;35.00;;;13.15;;
78141;SDS011;67393;52.620;13.482;2024-03-06T03:40:09;30.92;;;13.82;;
78141;SDS011;67393;52.620;13.482;2024-03-06T03:42:35;28.38;;;12.85;;
78141;SDS011;67393;52.620;13.482;2024-03-06T03:45:02;32.63;;;12.00;;
78141;SDS011;67393;52.620;13.482;2024-03-06T03:47:28;27.40;;;12.15;;
78141;SDS011;67393;52.620;13.482;2024-03-06T03:49:54;28.88;;;12.52;;
78141;SDS011;67393;52.620;13.482;2024-03-06T03:52:35;27.58;;;11.32;;
78141;SDS011;67393;52.620;13.482;2024-03-06T03:55:01;27.40;;;11.88;;
78141;SDS011;67393;52.620;13.482;2024-03-06T03:57:27;24.73;;;12.00;;
78141;SDS011;67393;52.620;13.482;2024-03-06T03:59:53;25.25;;;11.38;;
78141;SDS011;67393;52.620;13.482;2024-03-06T04:02:20;29.45;;;13.43;;
78141;SDS011;67393;52.620;13.482;2024-03-06T04:04:46;30.02;;;12.05;;
78141;SDS011;67393;52.620;13.482;2024-03-06T04:07:12;25.55;;;12.55;;
78141;SDS011;67393;52.620;13.482;2024-03-06T04:09:38;29.52;;;12.25;;
78141;SDS011;67393;52.620;13.482;2024-03-06T04:12:05;30.15;;;13.05;;
78141;SDS011;67393;52.620;13.482;2024-03-06T04:14:31;29.80;;;13.45;;
78141;SDS011;67393;52.620;13.482;2024-03-06T04:16:57;32.08;;;13.63;;
78141;SDS011;67393;52.620;13.482;2024-03-06T04:19:24;31.13;;;11.85;;
78141;SDS011;67393;52.620;13.482;2024-03-06T04:21:50;25.85;;;12.40;;
78141;SDS011;67393;52.620;13.482;2024-03-06T04:24:16;30.88;;;14.07;;
78141;SDS011;67393;52.620;13.482;2024-03-06T04:26:42;28.73;;;12.73;;
78141;SDS011;67393;52.620;13.482;2024-03-06T04:29:09;28.00;;;13.32;;
78141;SDS011;67393;52.620;13.482;2024-03-06T04:31:35;35.20;;;14.52;;
78141;SDS011;67393;52.620;13.482;2024-03-06T04:34:01;33.42;;;13.18;;
78141;SDS011;67393;52.620;13.482;2024-03-06T04:36:28;27.17;;;12.57;;
78141;SDS011;67393;52.620;13.482;2024-03-06T04:38:54;27.42;;;12.32;;
78141;SDS011;67393;52.620;13.482;2024-03-06T04:41:20;32.70;;;13.68;;
78141;SDS011;67393;52.620;13.482;2024-03-06T04:43:46;30.35;;;14.48;;
78141;SDS011;67393;52.620;13.482;2024-03-06T04:46:13;29.52;;;11.75;;
78141;SDS011;67393;52.620;13.482;2024-03-06T04:48:39;29.77;;;12.82;;
78141;SDS011;67393;52.620;13.482;2024-03-06T04:51:05;27.75;;;12.95;;
78141;SDS011;67393;52.620;13.482;2024-03-06T04:53:32;28.73;;;11.45;;
78141;SDS011;67393;52.620;13.482;2024-03-06T04:55:58;29.27;;;13.07;;
78141;SDS011;67393;52.620;13.482;2024-03-06T04:58:24;35.65;;;14.63;;
78141;SDS011;67393;52.620;13.482;2024-03-06T05:00:50;28.35;;;13.48;;
78141;SDS011;67393;52.620;13.482;2024-03-06T05:03:17;30.33;;;13.43;;
78141;SDS011;67393;52.620;13.482;2024-03-06T05:06:00;36.60;;;14.57;;
78141;SDS011;67393;52.620;13.482;2024-03-06T05:08:44;32.97;;;13.55;;
78141;SDS011;67393;52.620;13.482;2024-03-06T05:11:28;27.58;;;13.02;;
78141;SDS011;67393;52.620;13.482;2024-03-06T05:14:12;30.77;;;13.38;;
78141;SDS011;67393;52.620;13.482;2024-03-06T05:16:56;28.70;;;14.23;;
78141;SDS011;67393;52.620;13.482;2024-03-06T05:19:40;29.15;;;13.43;;
78141;SDS011;67393;52.620;13.482;2024-03-06T05:22:24;31.15;;;13.35;;
78141;SDS011;67393;52.620;13.482;2024-03-06T05:25:08;31.90;;;14.25;;
78141;SDS011;67393;52.620;13.482;2024-03-06T05:27:52;32.40;;;13.55;;
78141;SDS011;67393;52.620;13.482;2024-03-06T05:30:36;31.98;;;13.85;;
78141;SDS011;67393;52.620;13.482;2024-03-06T05:33:20;35.97;;;15.55;;
78141;SDS011;67393;52.620;13.482;2024-03-06T05:36:04;43.97;;;16.55;;
78141;SDS011;67393;52.620;13.482;2024-03-06T05:38:48;33.72;;;13.20;;
78141;SDS011;67393;52.620;13.482;2024-03-06T05:41:32;38.83;;;14.98;;
78141;SDS011;67393;52.620;13.482;2024-03-06T05:44:16;37.88;;;13.15;;
78141;SDS011;67393;52.620;13.482;2024-03-06T05:47:00;37.38;;;15.15;;
78141;SDS011;67393;52.620;13.482;2024-03-06T05:49:44;40.47;;;16.85;;
78141;SDS011;67393;52.620;13.482;2024-03-06T05:52:28;31.55;;;14.35;;
78141;SDS011;67393;52.620;13.482;2024-03-06T05:55:12;38.13;;;15.85;;
78141;SDS011;67393;52.620;13.482;2024-03-06T05:57:56;35.08;;;15.20;;
78141;SDS011;67393;52.620;13.482;2024-03-06T06:00:38;31.23;;;14.90;;
78141;SDS011;67393;52.620;13.482;2024-03-06T06:03:05;38.88;;;15.07;;
78141;SDS011;67393;52.620;13.482;2024-03-06T06:05:31;34.80;;;14.52;;
78141;SDS011;67393;52.620;13.482;2024-03-06T06:07:57;39.90;;;17.55;;
78141;SDS011;67393;52.620;13.482;2024-03-06T06:10:23;36.63;;;15.27;;
78141;SDS011;67393;52.620;13.482;2024-03-06T06:12:50;41.42;;;14.93;;
78141;SDS011;67393;52.620;13.482;2024-03-06T06:15:16;41.47;;;17.63;;
78141;SDS011;67393;52.620;13.482;2024-03-06T06:17:42;34.80;;;15.63;;
78141;SDS011;67393;52.620;13.482;2024-03-06T06:20:09;39.35;;;16.25;;
78141;SDS011;67393;52.620;13.482;2024-03-06T06:22:36;46.40;;;16.88;;
78141;SDS011;67393;52.620;13.482;2024-03-06T06:25:03;41.38;;;16.58;;
78141;SDS011;67393;52.620;13.482;2024-03-06T06:27:29;41.10;;;16.73;;
78141;SDS011;67393;52.620;13.482;2024-03-06T06:29:55;40.58;;;18.27;;
78141;SDS011;67393;52.620;13.482;2024-03-06T06:32:21;45.58;;;17.35;;
78141;SDS011;67393;52.620;13.482;2024-03-06T06:34:48;41.90;;;16.25;;
78141;SDS011;67393;52.620;13.482;2024-03-06T06:37:14;41.65;;;17.45;;
78141;SDS011;67393;52.620;13.482;2024-03-06T06:39:40;41.60;;;17.20;;
78141;SDS011;67393;52.620;13.482;2024-03-06T06:42:07;51.25;;;18.73;;
78141;SDS011;67393;52.620;13.482;2024-03-06T06:44:33;46.28;;;18.85;;
78141;SDS011;67393;52.620;13.482;2024-03-06T06:46:59;50.00;;;19.15;;
78141;SDS011;67393;52.620;13.482;2024-03-06T06:49:25;46.05;;;17.45;;
78141;SDS011;67393;52.620;13.482;2024-03-06T06:51:52;46.45;;;17.92;;
78141;SDS011;67393;52.620;13.482;2024-03-06T06:54:18;39.20;;;18.60;;
78141;SDS011;67393;52.620;13.482;2024-03-06T06:56:44;40.78;;;17.52;;
78141;SDS011;67393;52.620;13.482;2024-03-06T06:59:10;43.95;;;18.02;;
78141;SDS011;67393;52.620;13.482;2024-03-06T07:01:37;42.78;;;18.02;;
78141;SDS011;67393;52.620;13.482;2024-03-06T07:04:03;40.10;;;16.95;;
78141;SDS011;67393;52.620;13.482;2024-03-06T07:06:29;44.92;;;19.63;;
78141;SDS011;67393;52.620;13.482;2024-03-06T07:08:56;41.60;;;17.20;;
78141;SDS011;67393;52.620;13.482;2024-03-06T07:11:22;42.22;;;17.85;;
78141;SDS011;67393;52.620;13.482;2024-03-06T07:13:48;38.92;;;18.05;;
78141;SDS011;67393;52.620;13.482;2024-03-06T07:16:15;40.78;;;17.55;;
78141;SDS011;67393;52.620;13.482;2024-03-06T07:18:41;39.05;;;15.90;;
78141;SDS011;67393;52.620;13.482;2024-03-06T07:21:07;39.13;;;16.83;;
78141;SDS011;67393;52.620;13.482;2024-03-06T07:23:33;35.30;;;16.65;;
78141;SDS011;67393;52.620;13.482;2024-03-06T07:26:00;31.15;;;15.40;;
78141;SDS011;67393;52.620;13.482;2024-03-06T07:28:26;33.30;;;15.75;;
78141;SDS011;67393;52.620;13.482;2024-03-06T07:30:52;32.35;;;15.55;;
78141;SDS011;67393;52.620;13.482;2024-03-06T07:33:19;32.45;;;15.70;;
78141;SDS011;67393;52.620;13.482;2024-03-06T07:35:45;31.83;;;15.23;;
78141;SDS011;67393;52.620;13.482;2024-03-06T07:38:11;29.20;;;13.57;;
78141;SDS011;67393;52.620;13.482;2024-03-06T07:40:38;29.70;;;13.32;;
78141;SDS011;67393;52.620;13.482;2024-03-06T07:43:04;27.10;;;14.73;;
78141;SDS011;67393;52.620;13.482;2024-03-06T07:45:30;33.10;;;14.05;;
78141;SDS011;67393;52.620;13.482;2024-03-06T07:47:56;34.03;;;15.13;;
78141;SDS011;67393;52.620;13.482;2024-03-06T07:50:23;29.73;;;13.18;;
78141;SDS011;67393;52.620;13.482;2024-03-06T07:52:52;28.55;;;14.23;;
78141;SDS011;67393;52.620;13.482;2024-03-06T07:55:18;30.23;;;13.02;;
78141;SDS011;67393;52.620;13.482;2024-03-06T07:57:45;24.70;;;13.20;;
78141;SDS011;67393;52.620;13.482;2024-03-06T08:00:13;25.23;;;12.77;;
78141;SDS011;67393;52.620;13.482;2024-03-06T08:02:39;22.05;;;10.73;;
78141;SDS011;67393;52.620;13.482;2024-03-06T08:05:06;25.75;;;13.63;;
78141;SDS011;67393;52.620;13.482;2024-03-06T08:07:32;22.25;;;12.15;;
78141;SDS011;67393;52.620;13.482;2024-03-06T08:09:58;22.40;;;12.02;;
78141;SDS011;67393;52.620;13.482;2024-03-06T08:12:24;27.42;;;12.10;;
78141;SDS011;67393;52.620;13.482;2024-03-06T08:14:51;25.95;;;12.07;;
78141;SDS011;67393;52.620;13.482;2024-03-06T08:17:17;20.23;;;11.85;;
78141;SDS011;67393;52.620;13.482;2024-03-06T08:19:43;25.50;;;10.77;;
78141;SDS011;67393;52.620;13.482;2024-03-06T08:22:09;17.95;;;10.85;;
78141;SDS011;67393;52.620;13.482;2024-03-06T08:24:36;17.75;;;9.68;;
78141;SDS011;67393;52.620;13.482;2024-03-06T08:27:02;20.77;;;11.65;;
78141;SDS011;67393;52.620;13.482;2024-03-06T08:29:28;19.20;;;10.38;;
78141;SDS011;67393;52.620;13.482;2024-03-06T08:31:55;18.98;;;9.52;;
78141;SDS011;67393;52.620;13.482;2024-03-06T08:34:22;20.40;;;11.52;;
78141;SDS011;67393;52.620;13.482;2024-03-06T08:36:48;20.05;;;9.85;;
78141;SDS011;67393;52.620;13.482;2024-03-06T08:39:14;17.38;;;8.98;;
78141;SDS011;67393;52.620;13.482;2024-03-06T08:41:44;17.52;;;9.70;;
78141;SDS011;67393;52.620;13.482;2024-03-06T08:44:10;17.50;;;9.25;;
78141;SDS011;67393;52.620;13.482;2024-03-06T08:46:36;18.40;;;8.63;;
78141;SDS011;67393;52.620;13.482;2024-03-06T08:49:03;13.85;;;8.43;;
78141;SDS011;67393;52.620;13.482;2024-03-06T08:51:33;16.42;;;8.85;;
78141;SDS011;67393;52.620;13.482;2024-03-06T08:54:00;14.25;;;8.73;;
78141;SDS011;67393;52.620;13.482;2024-03-06T08:56:26;14.52;;;8.30;;
78141;SDS011;67393;52.620;13.482;2024-03-06T08:58:53;11.43;;;7.18;;
78141;SDS011;67393;52.620;13.482;2024-03-06T09:01:19;14.93;;;8.45;;
78141;SDS011;67393;52.620;13.482;2024-03-06T09:03:45;13.68;;;7.75;;
78141;SDS011;67393;52.620;13.482;2024-03-06T09:06:11;9.35;;;6.50;;
78141;SDS011;67393;52.620;13.482;2024-03-06T09:08:38;16.65;;;8.90;;
78141;SDS011;67393;52.620;13.482;2024-03-06T09:11:04;14.10;;;8.98;;
78141;SDS011;67393;52.620;13.482;2024-03-06T09:13:30;13.65;;;8.80;;
78141;SDS011;67393;52.620;13.482;2024-03-06T09:15:57;13.68;;;8.80;;
78141;SDS011;67393;52.620;13.482;2024-03-06T09:18:23;14.35;;;8.35;;
78141;SDS011;67393;52.620;13.482;2024-03-06T09:20:49;16.77;;;10.40;;
78141;SDS011;67393;52.620;13.482;2024-03-06T09:23:16;19.38;;;9.07;;
78141;SDS011;67393;52.620;13.482;2024-03-06T09:25:42;12.43;;;8.23;;
78141;SDS011;67393;52.620;13.482;2024-03-06T09:28:08;19.67;;;9.90;;
78141;SDS011;67393;52.620;13.482;2024-03-06T09:33:32;18.50;;;9.20;;
78141;SDS011;67393;52.620;13.482;2024-03-06T09:35:58;17.55;;;9.52;;
78141;SDS011;67393;52.620;13.482;2024-03-06T09:38:25;17.92;;;9.68;;
78141;SDS011;67393;52.620;13.482;2024-03-06T09:40:51;15.13;;;8.57;;
78141;SDS011;67393;52.620;13.482;2024-03-06T09:43:17;14.30;;;8.50;;
78141;SDS011;67393;52.620;13.482;2024-03-06T09:45:48;20.65;;;10.27;;
78141;SDS011;67393;52.620;13.482;2024-03-06T09:48:14;15.77;;;9.45;;
78141;SDS011;67393;52.620;13.482;2024-03-06T09:53:08;18.92;;;10.80;;
78141;SDS011;67393;52.620;13.482;2024-03-06T09:55:36;14.77;;;9.52;;
78141;SDS011;67393;52.620;13.482;2024-03-06T09:58:02;14.98;;;10.07;;
78141;SDS011;67393;52.620;13.482;2024-03-06T10:00:28;16.58;;;9.77;;
78141;SDS011;67393;52.620;13.482;2024-03-06T10:02:57;15.10;;;9.35;;
78141;SDS011;67393;52.620;13.482;2024-03-06T10:05:23;16.67;;;9.82;;
78141;SDS011;67393;52.620;13.482;2024-03-06T10:07:50;16.65;;;11.30;;
78141;SDS011;67393;52.620;13.482;2024-03-06T10:10:18;19.67;;;11.45;;
78141;SDS011;67393;52.620;13.482;2024-03-06T10:12:45;17.80;;;11.52;;
78141;SDS011;67393;52.620;13.482;2024-03-06T10:15:11;20.02;;;11.85;;
78141;SDS011;67393;52.620;13.482;2024-03-06T10:17:38;22.92;;;13.57;;
78141;SDS011;67393;52.620;13.482;2024-03-06T10:22:43;26.70;;;12.57;;
78141;SDS011;67393;52.620;13.482;2024-03-06T10:25:09;27.92;;;14.52;;
78141;SDS011;67393;52.620;13.482;2024-03-06T10:27:35;20.35;;;11.85;;
78141;SDS011;67393;52.620;13.482;2024-03-06T10:30:03;19.98;;;11.23;;
78141;SDS011;67393;52.620;13.482;2024-03-06T10:32:31;18.58;;;11.80;;
78141;SDS011;67393;52.620;13.482;2024-03-06T10:34:57;20.30;;;11.90;;
78141;SDS011;67393;52.620;13.482;2024-03-06T10:37:24;20.92;;;11.93;;
78141;SDS011;67393;52.620;13.482;2024-03-06T10:39:51;28.95;;;14.55;;
78141;SDS011;67393;52.620;13.482;2024-03-06T10:42:18;19.70;;;12.15;;
78141;SDS011;67393;52.620;13.482;2024-03-06T10:44:51;18.15;;;11.27;;
78141;SDS011;67393;52.620;13.482;2024-03-06T10:47:18;22.90;;;11.20;;
78141;SDS011;67393;52.620;13.482;2024-03-06T10:49:44;20.73;;;11.43;;
78141;SDS011;67393;52.620;13.482;2024-03-06T10:52:11;21.83;;;12.45;;
78141;SDS011;67393;52.620;13.482;2024-03-06T10:54:38;21.42;;;12.88;;
78141;SDS011;67393;52.620;13.482;2024-03-06T10:57:05;24.02;;;13.85;;
78141;SDS011;67393;52.620;13.482;2024-03-06T10:59:31;23.23;;;14.10;;
78141;SDS011;67393;52.620;13.482;2024-03-06T11:01:59;29.85;;;15.50;;
78141;SDS011;67393;52.620;13.482;2024-03-06T11:04:26;23.63;;;14.30;;
78141;SDS011;67393;52.620;13.482;2024-03-06T11:06:52;21.30;;;14.20;;
78141;SDS011;67393;52.620;13.482;2024-03-06T11:09:19;25.02;;;13.93;;
78141;SDS011;67393;52.620;13.482;2024-03-06T11:11:49;20.55;;;11.73;;
78141;SDS011;67393;52.620;13.482;2024-03-06T11:14:15;17.75;;;10.88;;
78141;SDS011;67393;52.620;13.482;2024-03-06T11:25:07;19.50;;;11.18;;
78141;SDS011;67393;52.620;13.482;2024-03-06T11:27:49;19.08;;;11.30;;
78141;SDS011;67393;52.620;13.482;2024-03-06T11:30:20;19.17;;;10.95;;
78141;SDS011;67393;52.620;13.482;2024-03-06T11:32:59;18.08;;;10.63;;
78141;SDS011;67393;52.620;13.482;2024-03-06T11:35:27;17.67;;;9.80;;
78141;SDS011;67393;52.620;13.482;2024-03-06T11:37:53;22.48;;;11.02;;
78141;SDS011;67393;52.620;13.482;2024-03-06T11:40:23;15.68;;;10.07;;
78141;SDS011;67393;52.620;13.482;2024-03-06T11:42:49;16.45;;;10.30;;
78141;SDS011;67393;52.620;13.482;2024-03-06T11:45:16;19.02;;;10.27;;
78141;SDS011;67393;52.620;13.482;2024-03-06T11:48:03;19.58;;;10.68;;
78141;SDS011;67393;52.620;13.482;2024-03-06T11:50:29;18.38;;;8.85;;
78141;SDS011;67393;52.620;13.482;2024-03-06T11:52:56;15.57;;;9.13;;
78141;SDS011;67393;52.620;13.482;2024-03-06T11:55:22;14.55;;;8.00;;
78141;SDS011;67393;52.620;13.482;2024-03-06T11:57:48;13.38;;;8.80;;
78141;SDS011;67393;52.620;13.482;2024-03-06T12:00:15;14.73;;;9.48;;
78141;SDS011;67393;52.620;13.482;2024-03-06T12:02:41;17.80;;;10.52;;
78141;SDS011;67393;52.620;13.482;2024-03-06T12:05:09;14.45;;;8.88;;
78141;SDS011;67393;52.620;13.482;2024-03-06T12:07:47;15.23;;;8.48;;
78141;SDS011;67393;52.620;13.482;2024-03-06T12:10:14;16.98;;;8.48;;
78141;SDS011;67393;52.620;13.482;2024-03-06T12:12:40;12.30;;;8.60;;
78141;SDS011;67393;52.620;13.482;2024-03-06T12:15:09;16.05;;;9.45;;
78141;SDS011;67393;52.620;13.482;2024-03-06T12:17:42;15.63;;;9.38;;
78141;SDS011;67393;52.620;13.482;2024-03-06T12:20:10;18.83;;;10.52;;
78141;SDS011;67393;52.620;13.482;2024-03-06T12:22:36;17.25;;;10.93;;
78141;SDS011;67393;52.620;13.482;2024-03-06T12:25:03;19.70;;;11.93;;
78141;SDS011;67393;52.620;13.482;2024-03-06T12:27:29;20.30;;;11.80;;
78141;SDS011;67393;52.620;13.482;2024-03-06T12:29:55;18.55;;;10.00;;
78141;SDS011;67393;52.620;13.482;2024-03-06T12:32:22;18.48;;;11.10;;
78141;SDS011;67393;52.620;13.482;2024-03-06T12:34:58;23.77;;;11.95;;
78141;SDS011;67393;52.620;13.482;2024-03-06T12:37:28;21.20;;;10.52;;
78141;SDS011;67393;52.620;13.482;2024-03-06T12:39:54;23.55;;;10.82;;
78141;SDS011;67393;52.620;13.482;2024-03-06T12:42:21;22.85;;;11.95;;
78141;SDS011;67393;52.620;13.482;2024-03-06T12:44:47;21.30;;;11.32;;
78141;SDS011;67393;52.620;13.482;2024-03-06T12:47:13;22.90;;;11.13;;
78141;SDS011;67393;52.620;13.482;2024-03-06T12:49:39;30.67;;;10.63;;
78141;SDS011;67393;52.620;13.482;2024-03-06T12:52:06;26.23;;;12.20;;
78141;SDS011;67393;52.620;13.482;2024-03-06T12:54:32;24.52;;;11.88;;
78141;SDS011;67393;52.620;13.482;2024-03-06T12:56:58;22.95;;;9.55;;
78141;SDS011;67393;52.620;13.482;2024-03-06T12:59:24;25.40;;;12.70;;
78141;SDS011;67393;52.620;13.482;2024-03-06T13:01:51;28.85;;;12.82;;
78141;SDS011;67393;52.620;13.482;2024-03-06T13:04:17;30.15;;;13.55;;
78141;SDS011;67393;52.620;13.482;2024-03-06T13:06:44;24.02;;;13.20;;
78141;SDS011;67393;52.620;13.482;2024-03-06T13:09:10;24.33;;;12.35;;
78141;SDS011;67393;52.620;13.482;2024-03-06T13:11:36;27.92;;;13.35;;
78141;SDS011;67393;52.620;13.482;2024-03-06T13:14:03;23.95;;;12.60;;
78141;SDS011;67393;52.620;13.482;2024-03-06T13:16:29;21.73;;;11.05;;
78141;SDS011;67393;52.620;13.482;2024-03-06T13:18:55;26.70;;;11.30;;
78141;SDS011;67393;52.620;13.482;2024-03-06T13:21:22;24.20;;;10.18;;
78141;SDS011;67393;52.620;13.482;2024-03-06T13:23:48;21.15;;;11.27;;
78141;SDS011;67393;52.620;13.482;2024-03-06T13:26:14;23.10;;;11.10;;
78141;SDS011;67393;52.620;13.482;2024-03-06T13:28:41;26.75;;;10.73;;
78141;SDS011;67393;52.620;13.482;2024-03-06T13:31:07;27.90;;;12.05;;
78141;SDS011;67393;52.620;13.482;2024-03-06T13:33:33;25.30;;;11.93;;
78141;SDS011;67393;52.620;13.482;2024-03-06T13:36:00;23.63;;;11.20;;
78141;SDS011;67393;52.620;13.482;2024-03-06T13:38:30;30.20;;;10.48;;
78141;SDS011;67393;52.620;13.482;2024-03-06T13:40:57;22.63;;;11.90;;
78141;SDS011;67393;52.620;13.482;2024-03-06T13:43:23;32.65;;;12.02;;
78141;SDS011;67393;52.620;13.482;2024-03-06T13:45:49;31.30;;;13.90;;
78141;SDS011;67393;52.620;13.482;2024-03-06T13:48:16;34.67;;;13.93;;
78141;SDS011;67393;52.620;13.482;2024-03-06T13:50:43;36.90;;;15.05;;
78141;SDS011;67393;52.620;13.482;2024-03-06T13:53:10;28.00;;;12.70;;
78141;SDS011;67393;52.620;13.482;2024-03-06T13:55:36;32.75;;;12.32;;
78141;SDS011;67393;52.620;13.482;2024-03-06T13:58:03;47.25;;;18.02;;
78141;SDS011;67393;52.620;13.482;2024-03-06T14:00:30;43.10;;;16.52;;
78141;SDS011;67393;52.620;13.482;2024-03-06T14:02:56;48.08;;;19.15;;
78141;SDS011;67393;52.620;13.482;2024-03-06T14:05:23;49.58;;;19.33;;
78141;SDS011;67393;52.620;13.482;2024-03-06T14:07:49;45.95;;;17.27;;
78141;SDS011;67393;52.620;13.482;2024-03-06T14:10:15;46.17;;;17.15;;
78141;SDS011;67393;52.620;13.482;2024-03-06T14:12:41;44.45;;;18.38;;
78141;SDS011;67393;52.620;13.482;2024-03-06T14:15:08;36.22;;;16.38;;
78141;SDS011;67393;52.620;13.482;2024-03-06T14:17:34;31.20;;;14.80;;
78141;SDS011;67393;52.620;13.482;2024-03-06T14:20:00;27.08;;;12.70;;
78141;SDS011;67393;52.620;13.482;2024-03-06T14:22:27;25.80;;;12.30;;
78141;SDS011;67393;52.620;13.482;2024-03-06T14:24:53;25.65;;;11.77;;
78141;SDS011;67393;52.620;13.482;2024-03-06T14:27:20;24.25;;;11.15;;
78141;SDS011;67393;52.620;13.482;2024-03-06T14:29:46;28.33;;;11.32;;